KWYS/WYS METAR and TAF weather

Enter ICAO airport designator
Station Type Date Time Source
KWYS METAR 2022/06/28 09:55 UTC NOAA

KWYS 280955Z AUTO 00000KT 10SM CLR 04/04 A3035 RMK AO2


Station Type Date Time Source
KWYS Decoded METAR 2022/06/28 09:55 UTC NOAA

West Yellowstone, MT, United States (KWYS) 44-41N 111-07W
Jun 28, 2022 - 05:55 AM EDT / 2022.06.28 0955 UTC
Wind: Calm:0
Visibility: 10 mile(s):0
Sky conditions: clear
Temperature: 39 F (4 C)
Dew Point: 39 F (4 C)
Relative Humidity: 100%
Pressure (altimeter): 30.35 in. Hg (1027 hPa)
ob: KWYS 280955Z AUTO 00000KT 10SM CLR 04/04 A3035 RMK AO2
cycle: 10

Station Type Date Time Source
KWYS TAF 2022/06/28 06:44 UTC NOAA

TAF KWYS 280544Z 2806/2906 VRB05KT P6SM SCT120
FM281700 22009KT P6SM SCT120
FM281900 22013G21KT P6SM SCT080 PROB30 2822/2901 VRB15G25KT -TSRA BKN040CB
FM290400 VRB05KT P6SM SCT100

Example: see airport list